sensor_id;sensor_type;location;lat;lon;timestamp;P1;durP1;ratioP1;P2;durP2;ratioP2
65684;SDS011;52405;50.844;-1.062;2022-10-31T00:01:23;13.25;;;3.13;;
65684;SDS011;52405;50.844;-1.062;2022-10-31T00:03:54;14.50;;;4.20;;
65684;SDS011;52405;50.844;-1.062;2022-10-31T00:06:20;17.67;;;3.50;;
65684;SDS011;52405;50.844;-1.062;2022-10-31T00:08:47;13.00;;;3.03;;
65684;SDS011;52405;50.844;-1.062;2022-10-31T00:11:17;13.63;;;4.03;;
65684;SDS011;52405;50.844;-1.062;2022-10-31T00:13:42;12.57;;;3.15;;
65684;SDS011;52405;50.844;-1.062;2022-10-31T00:16:21;16.58;;;3.92;;
65684;SDS011;52405;50.844;-1.062;2022-10-31T00:18:55;12.95;;;3.03;;
65684;SDS011;52405;50.844;-1.062;2022-10-31T00:21:23;11.67;;;3.03;;
65684;SDS011;52405;50.844;-1.062;2022-10-31T00:23:49;18.33;;;4.05;;
65684;SDS011;52405;50.844;-1.062;2022-10-31T00:26:15;9.77;;;2.90;;
65684;SDS011;52405;50.844;-1.062;2022-10-31T00:28:41;13.57;;;3.65;;
65684;SDS011;52405;50.844;-1.062;2022-10-31T00:31:08;18.10;;;3.75;;
65684;SDS011;52405;50.844;-1.062;2022-10-31T00:33:35;13.73;;;3.00;;
65684;SDS011;52405;50.844;-1.062;2022-10-31T00:36:03;15.05;;;3.08;;
65684;SDS011;52405;50.844;-1.062;2022-10-31T00:38:29;21.08;;;4.32;;
65684;SDS011;52405;50.844;-1.062;2022-10-31T00:40:55;16.02;;;2.92;;
65684;SDS011;52405;50.844;-1.062;2022-10-31T00:43:20;14.93;;;3.08;;
65684;SDS011;52405;50.844;-1.062;2022-10-31T00:45:46;13.68;;;2.53;;
65684;SDS011;52405;50.844;-1.062;2022-10-31T00:48:11;23.27;;;3.60;;
65684;SDS011;52405;50.844;-1.062;2022-10-31T00:50:37;17.10;;;3.42;;
65684;SDS011;52405;50.844;-1.062;2022-10-31T00:53:03;11.70;;;3.03;;
65684;SDS011;52405;50.844;-1.062;2022-10-31T00:55:29;13.38;;;2.35;;
65684;SDS011;52405;50.844;-1.062;2022-10-31T00:57:54;15.07;;;2.30;;
65684;SDS011;52405;50.844;-1.062;2022-10-31T01:00:20;12.13;;;2.17;;
65684;SDS011;52405;50.844;-1.062;2022-10-31T01:02:46;15.15;;;2.70;;
65684;SDS011;52405;50.844;-1.062;2022-10-31T01:05:11;17.60;;;2.72;;
65684;SDS011;52405;50.844;-1.062;2022-10-31T01:07:38;16.10;;;2.95;;
65684;SDS011;52405;50.844;-1.062;2022-10-31T01:10:05;13.93;;;3.65;;
65684;SDS011;52405;50.844;-1.062;2022-10-31T01:12:41;15.43;;;2.80;;
65684;SDS011;52405;50.844;-1.062;2022-10-31T01:15:08;14.10;;;2.50;;
65684;SDS011;52405;50.844;-1.062;2022-10-31T01:17:35;11.43;;;2.35;;
65684;SDS011;52405;50.844;-1.062;2022-10-31T01:20:01;17.35;;;2.50;;
65684;SDS011;52405;50.844;-1.062;2022-10-31T01:22:26;18.52;;;2.90;;
65684;SDS011;52405;50.844;-1.062;2022-10-31T01:24:51;15.15;;;2.45;;
65684;SDS011;52405;50.844;-1.062;2022-10-31T01:27:17;14.50;;;3.13;;
65684;SDS011;52405;50.844;-1.062;2022-10-31T01:29:43;14.73;;;2.95;;
65684;SDS011;52405;50.844;-1.062;2022-10-31T01:32:08;14.82;;;3.55;;
65684;SDS011;52405;50.844;-1.062;2022-10-31T01:34:33;13.98;;;3.88;;
65684;SDS011;52405;50.844;-1.062;2022-10-31T01:36:59;17.02;;;2.67;;
65684;SDS011;52405;50.844;-1.062;2022-10-31T01:39:24;22.75;;;3.45;;
65684;SDS011;52405;50.844;-1.062;2022-10-31T01:41:51;11.27;;;2.67;;
65684;SDS011;52405;50.844;-1.062;2022-10-31T01:46:50;19.10;;;2.85;;
65684;SDS011;52405;50.844;-1.062;2022-10-31T01:54:36;16.75;;;3.20;;
65684;SDS011;52405;50.844;-1.062;2022-10-31T01:57:04;25.75;;;4.15;;
65684;SDS011;52405;50.844;-1.062;2022-10-31T01:59:34;15.38;;;3.35;;
65684;SDS011;52405;50.844;-1.062;2022-10-31T02:02:04;15.90;;;2.58;;
65684;SDS011;52405;50.844;-1.062;2022-10-31T02:04:31;17.67;;;3.85;;
65684;SDS011;52405;50.844;-1.062;2022-10-31T02:07:04;17.67;;;3.70;;
65684;SDS011;52405;50.844;-1.062;2022-10-31T02:09:34;18.58;;;3.55;;
65684;SDS011;52405;50.844;-1.062;2022-10-31T02:12:02;16.60;;;2.85;;
65684;SDS011;52405;50.844;-1.062;2022-10-31T02:14:29;12.13;;;3.17;;
65684;SDS011;52405;50.844;-1.062;2022-10-31T02:16:56;12.80;;;2.80;;
65684;SDS011;52405;50.844;-1.062;2022-10-31T02:30:06;17.50;;;3.83;;
65684;SDS011;52405;50.844;-1.062;2022-10-31T02:40:33;15.90;;;2.22;;
65684;SDS011;52405;50.844;-1.062;2022-10-31T02:43:34;14.23;;;4.10;;
65684;SDS011;52405;50.844;-1.062;2022-10-31T02:46:13;15.95;;;3.03;;
65684;SDS011;52405;50.844;-1.062;2022-10-31T02:48:45;25.83;;;3.42;;
65684;SDS011;52405;50.844;-1.062;2022-10-31T02:51:13;17.20;;;4.38;;
65684;SDS011;52405;50.844;-1.062;2022-10-31T02:53:40;16.33;;;2.78;;
65684;SDS011;52405;50.844;-1.062;2022-10-31T02:56:11;17.60;;;3.78;;
65684;SDS011;52405;50.844;-1.062;2022-10-31T02:58:45;22.15;;;3.42;;
65684;SDS011;52405;50.844;-1.062;2022-10-31T03:01:39;21.17;;;2.95;;
65684;SDS011;52405;50.844;-1.062;2022-10-31T03:06:57;18.77;;;3.25;;
65684;SDS011;52405;50.844;-1.062;2022-10-31T03:09:33;20.67;;;3.10;;
65684;SDS011;52405;50.844;-1.062;2022-10-31T03:12:11;18.70;;;4.90;;
65684;SDS011;52405;50.844;-1.062;2022-10-31T03:14:53;14.55;;;2.92;;
65684;SDS011;52405;50.844;-1.062;2022-10-31T03:17:31;17.25;;;4.05;;
65684;SDS011;52405;50.844;-1.062;2022-10-31T03:20:01;20.08;;;4.68;;
65684;SDS011;52405;50.844;-1.062;2022-10-31T03:22:29;18.83;;;3.20;;
65684;SDS011;52405;50.844;-1.062;2022-10-31T03:24:58;25.98;;;3.67;;
65684;SDS011;52405;50.844;-1.062;2022-10-31T03:27:27;22.92;;;3.50;;
65684;SDS011;52405;50.844;-1.062;2022-10-31T03:29:57;29.08;;;4.10;;
65684;SDS011;52405;50.844;-1.062;2022-10-31T03:34:59;16.50;;;3.30;;
65684;SDS011;52405;50.844;-1.062;2022-10-31T03:37:28;17.58;;;5.05;;
65684;SDS011;52405;50.844;-1.062;2022-10-31T03:39:57;23.20;;;4.47;;
65684;SDS011;52405;50.844;-1.062;2022-10-31T03:42:27;24.52;;;5.80;;
65684;SDS011;52405;50.844;-1.062;2022-10-31T03:44:57;18.60;;;3.63;;
65684;SDS011;52405;50.844;-1.062;2022-10-31T03:47:26;31.50;;;4.85;;
65684;SDS011;52405;50.844;-1.062;2022-10-31T03:49:52;27.08;;;3.67;;
65684;SDS011;52405;50.844;-1.062;2022-10-31T03:54:57;20.88;;;3.90;;
65684;SDS011;52405;50.844;-1.062;2022-10-31T03:57:43;31.20;;;5.18;;
65684;SDS011;52405;50.844;-1.062;2022-10-31T04:00:25;24.92;;;5.18;;
65684;SDS011;52405;50.844;-1.062;2022-10-31T04:02:53;24.77;;;4.15;;
65684;SDS011;52405;50.844;-1.062;2022-10-31T04:05:23;17.08;;;3.42;;
65684;SDS011;52405;50.844;-1.062;2022-10-31T04:07:50;33.33;;;4.50;;
65684;SDS011;52405;50.844;-1.062;2022-10-31T04:10:19;21.98;;;4.68;;
65684;SDS011;52405;50.844;-1.062;2022-10-31T04:12:48;17.77;;;2.83;;
65684;SDS011;52405;50.844;-1.062;2022-10-31T04:15:19;24.52;;;3.33;;
65684;SDS011;52405;50.844;-1.062;2022-10-31T04:17:47;31.95;;;4.05;;
65684;SDS011;52405;50.844;-1.062;2022-10-31T04:20:16;17.90;;;3.63;;
65684;SDS011;52405;50.844;-1.062;2022-10-31T04:22:42;21.88;;;3.17;;
65684;SDS011;52405;50.844;-1.062;2022-10-31T04:25:08;16.95;;;3.20;;
65684;SDS011;52405;50.844;-1.062;2022-10-31T04:27:34;22.52;;;4.00;;
65684;SDS011;52405;50.844;-1.062;2022-10-31T04:29:59;14.40;;;2.83;;
65684;SDS011;52405;50.844;-1.062;2022-10-31T04:32:25;32.63;;;3.78;;
65684;SDS011;52405;50.844;-1.062;2022-10-31T04:34:51;18.05;;;3.65;;
65684;SDS011;52405;50.844;-1.062;2022-10-31T04:37:16;27.45;;;4.05;;
65684;SDS011;52405;50.844;-1.062;2022-10-31T04:39:42;18.15;;;3.58;;
65684;SDS011;52405;50.844;-1.062;2022-10-31T04:42:07;20.67;;;3.83;;
65684;SDS011;52405;50.844;-1.062;2022-10-31T04:44:33;16.52;;;2.63;;
65684;SDS011;52405;50.844;-1.062;2022-10-31T04:46:58;21.75;;;4.68;;
65684;SDS011;52405;50.844;-1.062;2022-10-31T04:49:23;26.48;;;5.18;;
65684;SDS011;52405;50.844;-1.062;2022-10-31T04:51:49;17.85;;;3.72;;
65684;SDS011;52405;50.844;-1.062;2022-10-31T04:54:14;17.23;;;3.25;;
65684;SDS011;52405;50.844;-1.062;2022-10-31T04:56:40;24.55;;;3.33;;
65684;SDS011;52405;50.844;-1.062;2022-10-31T04:59:05;32.13;;;3.60;;
65684;SDS011;52405;50.844;-1.062;2022-10-31T05:01:30;21.27;;;3.88;;
65684;SDS011;52405;50.844;-1.062;2022-10-31T05:03:56;19.02;;;5.13;;
65684;SDS011;52405;50.844;-1.062;2022-10-31T05:06:21;19.55;;;3.55;;
65684;SDS011;52405;50.844;-1.062;2022-10-31T05:08:47;23.40;;;3.58;;
65684;SDS011;52405;50.844;-1.062;2022-10-31T05:11:12;21.73;;;4.63;;
65684;SDS011;52405;50.844;-1.062;2022-10-31T05:13:38;19.90;;;3.50;;
65684;SDS011;52405;50.844;-1.062;2022-10-31T05:16:03;20.77;;;3.78;;
65684;SDS011;52405;50.844;-1.062;2022-10-31T05:18:29;17.70;;;4.30;;
65684;SDS011;52405;50.844;-1.062;2022-10-31T05:20:54;20.27;;;3.97;;
65684;SDS011;52405;50.844;-1.062;2022-10-31T05:23:20;18.65;;;3.78;;
65684;SDS011;52405;50.844;-1.062;2022-10-31T05:25:45;26.00;;;3.53;;
65684;SDS011;52405;50.844;-1.062;2022-10-31T05:28:11;21.30;;;3.95;;
65684;SDS011;52405;50.844;-1.062;2022-10-31T05:30:37;16.30;;;3.10;;
65684;SDS011;52405;50.844;-1.062;2022-10-31T05:33:02;21.48;;;4.05;;
65684;SDS011;52405;50.844;-1.062;2022-10-31T05:35:29;15.10;;;3.15;;
65684;SDS011;52405;50.844;-1.062;2022-10-31T05:37:56;22.08;;;4.15;;
65684;SDS011;52405;50.844;-1.062;2022-10-31T05:40:22;21.02;;;3.03;;
65684;SDS011;52405;50.844;-1.062;2022-10-31T05:42:50;19.27;;;3.83;;
65684;SDS011;52405;50.844;-1.062;2022-10-31T05:45:17;27.58;;;4.78;;
65684;SDS011;52405;50.844;-1.062;2022-10-31T05:47:53;21.75;;;4.07;;
65684;SDS011;52405;50.844;-1.062;2022-10-31T05:50:21;16.58;;;3.65;;
65684;SDS011;52405;50.844;-1.062;2022-10-31T05:52:47;25.27;;;4.28;;
65684;SDS011;52405;50.844;-1.062;2022-10-31T05:55:18;17.83;;;4.57;;
65684;SDS011;52405;50.844;-1.062;2022-10-31T05:57:43;21.13;;;4.68;;
65684;SDS011;52405;50.844;-1.062;2022-10-31T06:00:09;12.27;;;3.00;;
65684;SDS011;52405;50.844;-1.062;2022-10-31T06:02:35;23.73;;;3.78;;
65684;SDS011;52405;50.844;-1.062;2022-10-31T06:05:00;15.60;;;3.67;;
65684;SDS011;52405;50.844;-1.062;2022-10-31T06:07:26;21.17;;;2.90;;
65684;SDS011;52405;50.844;-1.062;2022-10-31T06:09:52;15.00;;;3.67;;
65684;SDS011;52405;50.844;-1.062;2022-10-31T06:12:17;28.50;;;4.15;;
65684;SDS011;52405;50.844;-1.062;2022-10-31T06:14:43;14.65;;;2.85;;
65684;SDS011;52405;50.844;-1.062;2022-10-31T06:17:08;21.40;;;3.45;;
65684;SDS011;52405;50.844;-1.062;2022-10-31T06:19:34;23.45;;;3.88;;
65684;SDS011;52405;50.844;-1.062;2022-10-31T06:21:59;19.00;;;3.22;;
65684;SDS011;52405;50.844;-1.062;2022-10-31T06:24:24;16.17;;;4.05;;
65684;SDS011;52405;50.844;-1.062;2022-10-31T06:26:50;16.35;;;3.75;;
65684;SDS011;52405;50.844;-1.062;2022-10-31T06:29:15;20.67;;;3.45;;
65684;SDS011;52405;50.844;-1.062;2022-10-31T06:31:41;17.02;;;3.55;;
65684;SDS011;52405;50.844;-1.062;2022-10-31T06:34:06;21.27;;;3.25;;
65684;SDS011;52405;50.844;-1.062;2022-10-31T06:36:32;12.13;;;2.88;;
65684;SDS011;52405;50.844;-1.062;2022-10-31T06:38:57;17.08;;;2.72;;
65684;SDS011;52405;50.844;-1.062;2022-10-31T06:41:23;10.85;;;2.22;;
65684;SDS011;52405;50.844;-1.062;2022-10-31T06:43:48;17.33;;;4.60;;
65684;SDS011;52405;50.844;-1.062;2022-10-31T06:46:14;14.60;;;3.15;;
65684;SDS011;52405;50.844;-1.062;2022-10-31T06:48:40;18.13;;;3.55;;
65684;SDS011;52405;50.844;-1.062;2022-10-31T06:51:06;15.35;;;3.35;;
65684;SDS011;52405;50.844;-1.062;2022-10-31T06:53:32;17.80;;;3.15;;
65684;SDS011;52405;50.844;-1.062;2022-10-31T06:55:58;15.10;;;3.15;;
65684;SDS011;52405;50.844;-1.062;2022-10-31T06:58:23;18.77;;;2.45;;
65684;SDS011;52405;50.844;-1.062;2022-10-31T07:00:49;16.13;;;3.42;;
65684;SDS011;52405;50.844;-1.062;2022-10-31T07:03:16;15.93;;;2.70;;
65684;SDS011;52405;50.844;-1.062;2022-10-31T07:05:42;20.67;;;4.20;;
65684;SDS011;52405;50.844;-1.062;2022-10-31T07:08:09;13.43;;;4.10;;
65684;SDS011;52405;50.844;-1.062;2022-10-31T07:10:37;21.20;;;3.28;;
65684;SDS011;52405;50.844;-1.062;2022-10-31T07:13:05;15.85;;;3.00;;
65684;SDS011;52405;50.844;-1.062;2022-10-31T07:15:34;16.17;;;4.20;;
65684;SDS011;52405;50.844;-1.062;2022-10-31T07:18:04;21.92;;;3.58;;
65684;SDS011;52405;50.844;-1.062;2022-10-31T07:20:32;14.77;;;3.22;;
65684;SDS011;52405;50.844;-1.062;2022-10-31T07:22:57;17.45;;;3.65;;
65684;SDS011;52405;50.844;-1.062;2022-10-31T07:25:23;19.70;;;2.80;;
65684;SDS011;52405;50.844;-1.062;2022-10-31T07:27:49;12.77;;;3.67;;
65684;SDS011;52405;50.844;-1.062;2022-10-31T07:30:15;15.93;;;3.33;;
65684;SDS011;52405;50.844;-1.062;2022-10-31T07:32:44;16.70;;;3.90;;
65684;SDS011;52405;50.844;-1.062;2022-10-31T07:35:12;12.35;;;3.38;;
65684;SDS011;52405;50.844;-1.062;2022-10-31T07:37:39;15.98;;;3.20;;
65684;SDS011;52405;50.844;-1.062;2022-10-31T07:40:05;21.08;;;3.03;;
65684;SDS011;52405;50.844;-1.062;2022-10-31T07:42:35;20.27;;;4.35;;
65684;SDS011;52405;50.844;-1.062;2022-10-31T07:45:04;11.73;;;2.67;;
65684;SDS011;52405;50.844;-1.062;2022-10-31T07:47:38;20.27;;;3.13;;
65684;SDS011;52405;50.844;-1.062;2022-10-31T07:50:04;16.02;;;2.70;;
65684;SDS011;52405;50.844;-1.062;2022-10-31T07:52:30;10.20;;;2.40;;
65684;SDS011;52405;50.844;-1.062;2022-10-31T07:54:56;12.07;;;3.30;;
65684;SDS011;52405;50.844;-1.062;2022-10-31T07:57:21;14.38;;;3.00;;
65684;SDS011;52405;50.844;-1.062;2022-10-31T07:59:47;17.65;;;2.75;;
65684;SDS011;52405;50.844;-1.062;2022-10-31T08:02:12;17.80;;;3.35;;
65684;SDS011;52405;50.844;-1.062;2022-10-31T08:04:38;13.27;;;2.25;;
65684;SDS011;52405;50.844;-1.062;2022-10-31T08:07:03;13.32;;;2.40;;
65684;SDS011;52405;50.844;-1.062;2022-10-31T08:09:29;9.73;;;2.13;;
65684;SDS011;52405;50.844;-1.062;2022-10-31T08:11:54;11.45;;;2.97;;
65684;SDS011;52405;50.844;-1.062;2022-10-31T08:14:20;13.43;;;2.83;;
65684;SDS011;52405;50.844;-1.062;2022-10-31T08:16:46;13.90;;;3.67;;
65684;SDS011;52405;50.844;-1.062;2022-10-31T08:19:11;8.98;;;3.03;;
65684;SDS011;52405;50.844;-1.062;2022-10-31T08:21:37;17.52;;;3.60;;
65684;SDS011;52405;50.844;-1.062;2022-10-31T08:24:03;18.67;;;2.88;;
65684;SDS011;52405;50.844;-1.062;2022-10-31T08:26:29;13.77;;;3.53;;
65684;SDS011;52405;50.844;-1.062;2022-10-31T08:28:54;26.80;;;3.15;;
65684;SDS011;52405;50.844;-1.062;2022-10-31T08:31:20;21.30;;;2.90;;
65684;SDS011;52405;50.844;-1.062;2022-10-31T08:33:46;8.15;;;2.58;;
65684;SDS011;52405;50.844;-1.062;2022-10-31T08:36:11;16.80;;;2.78;;
65684;SDS011;52405;50.844;-1.062;2022-10-31T08:38:37;6.47;;;1.90;;
65684;SDS011;52405;50.844;-1.062;2022-10-31T08:41:02;7.13;;;1.73;;
65684;SDS011;52405;50.844;-1.062;2022-10-31T08:43:28;11.75;;;2.35;;
65684;SDS011;52405;50.844;-1.062;2022-10-31T08:45:53;5.97;;;1.65;;
65684;SDS011;52405;50.844;-1.062;2022-10-31T08:48:20;10.20;;;2.75;;
65684;SDS011;52405;50.844;-1.062;2022-10-31T08:50:46;8.55;;;2.58;;
65684;SDS011;52405;50.844;-1.062;2022-10-31T08:53:13;8.23;;;1.38;;
65684;SDS011;52405;50.844;-1.062;2022-10-31T08:55:40;13.48;;;2.80;;
65684;SDS011;52405;50.844;-1.062;2022-10-31T08:58:09;7.63;;;2.75;;
65684;SDS011;52405;50.844;-1.062;2022-10-31T09:00:36;11.02;;;2.90;;
65684;SDS011;52405;50.844;-1.062;2022-10-31T09:03:10;13.23;;;2.70;;
65684;SDS011;52405;50.844;-1.062;2022-10-31T09:05:40;11.82;;;3.60;;
65684;SDS011;52405;50.844;-1.062;2022-10-31T09:08:06;9.85;;;2.55;;
65684;SDS011;52405;50.844;-1.062;2022-10-31T09:10:32;9.45;;;1.95;;
65684;SDS011;52405;50.844;-1.062;2022-10-31T09:13:00;13.50;;;2.40;;
65684;SDS011;52405;50.844;-1.062;2022-10-31T09:15:31;14.98;;;2.33;;
65684;SDS011;52405;50.844;-1.062;2022-10-31T09:17:57;9.85;;;1.92;;
65684;SDS011;52405;50.844;-1.062;2022-10-31T09:20:23;15.23;;;2.70;;
65684;SDS011;52405;50.844;-1.062;2022-10-31T09:22:54;11.95;;;1.70;;
65684;SDS011;52405;50.844;-1.062;2022-10-31T09:25:21;9.43;;;2.05;;
65684;SDS011;52405;50.844;-1.062;2022-10-31T09:27:46;15.00;;;2.35;;
65684;SDS011;52405;50.844;-1.062;2022-10-31T09:30:12;8.05;;;2.28;;
65684;SDS011;52405;50.844;-1.062;2022-10-31T09:32:37;8.20;;;1.90;;
65684;SDS011;52405;50.844;-1.062;2022-10-31T09:35:03;11.32;;;2.22;;
65684;SDS011;52405;50.844;-1.062;2022-10-31T09:37:29;12.93;;;1.63;;
65684;SDS011;52405;50.844;-1.062;2022-10-31T09:39:54;9.65;;;2.42;;
65684;SDS011;52405;50.844;-1.062;2022-10-31T09:45:05;8.63;;;1.98;;
65684;SDS011;52405;50.844;-1.062;2022-10-31T09:50:18;8.00;;;2.23;;
65684;SDS011;52405;50.844;-1.062;2022-10-31T09:52:56;10.15;;;3.72;;
65684;SDS011;52405;50.844;-1.062;2022-10-31T09:55:36;6.40;;;1.67;;
65684;SDS011;52405;50.844;-1.062;2022-10-31T09:58:04;7.78;;;1.58;;
65684;SDS011;52405;50.844;-1.062;2022-10-31T10:00:30;8.68;;;1.90;;
65684;SDS011;52405;50.844;-1.062;2022-10-31T10:03:09;10.05;;;2.50;;
65684;SDS011;52405;50.844;-1.062;2022-10-31T10:06:16;6.35;;;1.52;;
65684;SDS011;52405;50.844;-1.062;2022-10-31T10:08:44;9.07;;;2.75;;
65684;SDS011;52405;50.844;-1.062;2022-10-31T10:16:57;9.90;;;3.28;;
65684;SDS011;52405;50.844;-1.062;2022-10-31T10:30:19;12.43;;;3.78;;
65684;SDS011;52405;50.844;-1.062;2022-10-31T10:32:47;7.05;;;2.08;;
65684;SDS011;52405;50.844;-1.062;2022-10-31T10:35:35;3.85;;;2.30;;
65684;SDS011;52405;50.844;-1.062;2022-10-31T10:40:54;8.43;;;3.38;;
65684;SDS011;52405;50.844;-1.062;2022-10-31T10:51:51;9.75;;;2.22;;
65684;SDS011;52405;50.844;-1.062;2022-10-31T10:54:42;11.25;;;2.35;;
65684;SDS011;52405;50.844;-1.062;2022-10-31T11:00:23;9.52;;;1.95;;
65684;SDS011;52405;50.844;-1.062;2022-10-31T11:02:49;8.38;;;2.15;;
65684;SDS011;52405;50.844;-1.062;2022-10-31T11:08:02;6.07;;;1.60;;
65684;SDS011;52405;50.844;-1.062;2022-10-31T11:10:29;6.20;;;1.70;;
65684;SDS011;52405;50.844;-1.062;2022-10-31T11:15:27;7.85;;;1.98;;
65684;SDS011;52405;50.844;-1.062;2022-10-31T11:17:55;5.68;;;2.28;;
65684;SDS011;52405;50.844;-1.062;2022-10-31T11:20:27;10.95;;;2.00;;
65684;SDS011;52405;50.844;-1.062;2022-10-31T11:23:01;13.85;;;2.60;;
65684;SDS011;52405;50.844;-1.062;2022-10-31T11:25:54;10.20;;;1.98;;
65684;SDS011;52405;50.844;-1.062;2022-10-31T11:28:19;10.23;;;1.83;;
65684;SDS011;52405;50.844;-1.062;2022-10-31T11:35:58;11.40;;;3.08;;
65684;SDS011;52405;50.844;-1.062;2022-10-31T11:38:31;6.88;;;1.50;;
65684;SDS011;52405;50.844;-1.062;2022-10-31T11:43:59;17.38;;;3.50;;
65684;SDS011;52405;50.844;-1.062;2022-10-31T11:46:42;9.73;;;2.15;;
65684;SDS011;52405;50.844;-1.062;2022-10-31T11:49:32;6.00;;;2.65;;
65684;SDS011;52405;50.844;-1.062;2022-10-31T11:54:36;8.20;;;1.80;;
65684;SDS011;52405;50.844;-1.062;2022-10-31T11:59:54;6.05;;;1.98;;
65684;SDS011;52405;50.844;-1.062;2022-10-31T12:02:21;7.18;;;1.10;;
65684;SDS011;52405;50.844;-1.062;2022-10-31T12:04:49;10.55;;;1.65;;
65684;SDS011;52405;50.844;-1.062;2022-10-31T12:07:42;7.13;;;1.80;;
65684;SDS011;52405;50.844;-1.062;2022-10-31T12:10:11;8.55;;;1.48;;
65684;SDS011;52405;50.844;-1.062;2022-10-31T12:15:20;6.57;;;2.17;;
65684;SDS011;52405;50.844;-1.062;2022-10-31T12:26:23;7.95;;;2.17;;
65684;SDS011;52405;50.844;-1.062;2022-10-31T12:29:18;6.55;;;2.13;;
65684;SDS011;52405;50.844;-1.062;2022-10-31T12:31:51;6.50;;;1.92;;
65684;SDS011;52405;50.844;-1.062;2022-10-31T12:34:38;7.28;;;2.33;;
65684;SDS011;52405;50.844;-1.062;2022-10-31T12:42:42;6.88;;;2.00;;
65684;SDS011;52405;50.844;-1.062;2022-10-31T12:51:33;12.15;;;2.35;;
65684;SDS011;52405;50.844;-1.062;2022-10-31T13:02:20;8.02;;;2.30;;
65684;SDS011;52405;50.844;-1.062;2022-10-31T13:04:53;6.57;;;1.20;;
65684;SDS011;52405;50.844;-1.062;2022-10-31T13:07:33;9.45;;;1.77;;
65684;SDS011;52405;50.844;-1.062;2022-10-31T13:12:31;7.28;;;1.52;;
65684;SDS011;52405;50.844;-1.062;2022-10-31T13:17:53;5.60;;;1.00;;
65684;SDS011;52405;50.844;-1.062;2022-10-31T13:20:43;8.35;;;1.25;;
65684;SDS011;52405;50.844;-1.062;2022-10-31T13:23:11;6.57;;;1.25;;
65684;SDS011;52405;50.844;-1.062;2022-10-31T13:25:46;7.13;;;1.30;;
65684;SDS011;52405;50.844;-1.062;2022-10-31T13:28:23;5.45;;;1.83;;
65684;SDS011;52405;50.844;-1.062;2022-10-31T13:30:55;6.40;;;1.40;;
65684;SDS011;52405;50.844;-1.062;2022-10-31T13:36:14;4.78;;;1.50;;
65684;SDS011;52405;50.844;-1.062;2022-10-31T13:39:02;7.28;;;1.10;;
65684;SDS011;52405;50.844;-1.062;2022-10-31T13:46:55;5.53;;;1.42;;
65684;SDS011;52405;50.844;-1.062;2022-10-31T13:54:35;6.18;;;1.40;;
65684;SDS011;52405;50.844;-1.062;2022-10-31T13:57:06;11.75;;;1.60;;
65684;SDS011;52405;50.844;-1.062;2022-10-31T13:59:45;4.05;;;1.20;;
65684;SDS011;52405;50.844;-1.062;2022-10-31T14:02:15;3.45;;;1.10;;
65684;SDS011;52405;50.844;-1.062;2022-10-31T14:04:46;6.18;;;2.08;;
65684;SDS011;52405;50.844;-1.062;2022-10-31T14:07:17;9.60;;;1.90;;
65684;SDS011;52405;50.844;-1.062;2022-10-31T14:12:31;8.23;;;1.45;;
65684;SDS011;52405;50.844;-1.062;2022-10-31T14:26:05;15.45;;;2.15;;
65684;SDS011;52405;50.844;-1.062;2022-10-31T14:28:43;10.32;;;1.73;;
65684;SDS011;52405;50.844;-1.062;2022-10-31T14:34:22;6.38;;;1.25;;
65684;SDS011;52405;50.844;-1.062;2022-10-31T14:36:56;9.43;;;1.85;;
65684;SDS011;52405;50.844;-1.062;2022-10-31T14:42:29;9.15;;;1.80;;
65684;SDS011;52405;50.844;-1.062;2022-10-31T14:52:53;4.90;;;2.85;;
65684;SDS011;52405;50.844;-1.062;2022-10-31T14:55:21;5.40;;;1.52;;
65684;SDS011;52405;50.844;-1.062;2022-10-31T14:58:07;14.88;;;2.58;;
65684;SDS011;52405;50.844;-1.062;2022-10-31T15:00:33;6.70;;;2.53;;
65684;SDS011;52405;50.844;-1.062;2022-10-31T15:05:32;8.43;;;1.40;;
65684;SDS011;52405;50.844;-1.062;2022-10-31T15:08:12;3.03;;;1.17;;
65684;SDS011;52405;50.844;-1.062;2022-10-31T15:10:39;7.95;;;2.55;;
65684;SDS011;52405;50.844;-1.062;2022-10-31T15:13:17;9.05;;;2.38;;
65684;SDS011;52405;50.844;-1.062;2022-10-31T15:15:44;5.88;;;1.60;;
65684;SDS011;52405;50.844;-1.062;2022-10-31T15:18:15;11.95;;;1.88;;
65684;SDS011;52405;50.844;-1.062;2022-10-31T15:20:43;9.27;;;2.45;;
65684;SDS011;52405;50.844;-1.062;2022-10-31T15:23:16;13.75;;;2.65;;
65684;SDS011;52405;50.844;-1.062;2022-10-31T15:25:57;12.60;;;2.13;;
65684;SDS011;52405;50.844;-1.062;2022-10-31T15:28:24;10.20;;;1.70;;
65684;SDS011;52405;50.844;-1.062;2022-10-31T15:30:54;7.30;;;1.73;;
65684;SDS011;52405;50.844;-1.062;2022-10-31T15:33:31;7.63;;;2.25;;
65684;SDS011;52405;50.844;-1.062;2022-10-31T15:36:04;8.82;;;1.70;;
65684;SDS011;52405;50.844;-1.062;2022-10-31T15:38:30;11.63;;;3.08;;
65684;SDS011;52405;50.844;-1.062;2022-10-31T15:41:00;17.13;;;2.38;;
65684;SDS011;52405;50.844;-1.062;2022-10-31T15:43:30;12.57;;;3.45;;
65684;SDS011;52405;50.844;-1.062;2022-10-31T15:46:00;11.18;;;2.65;;
65684;SDS011;52405;50.844;-1.062;2022-10-31T15:48:27;8.82;;;2.70;;
65684;SDS011;52405;50.844;-1.062;2022-10-31T15:50:56;17.25;;;4.35;;
65684;SDS011;52405;50.844;-1.062;2022-10-31T15:56:01;19.05;;;4.05;;
65684;SDS011;52405;50.844;-1.062;2022-10-31T15:58:32;10.18;;;2.60;;
65684;SDS011;52405;50.844;-1.062;2022-10-31T16:01:05;10.13;;;2.25;;
65684;SDS011;52405;50.844;-1.062;2022-10-31T16:03:43;20.08;;;5.53;;
65684;SDS011;52405;50.844;-1.062;2022-10-31T16:06:19;11.43;;;3.90;;
65684;SDS011;52405;50.844;-1.062;2022-10-31T16:08:46;15.02;;;3.90;;
65684;SDS011;52405;50.844;-1.062;2022-10-31T16:13:56;11.93;;;3.03;;
65684;SDS011;52405;50.844;-1.062;2022-10-31T16:16:25;13.02;;;3.60;;
65684;SDS011;52405;50.844;-1.062;2022-10-31T16:18:52;37.15;;;4.50;;
65684;SDS011;52405;50.844;-1.062;2022-10-31T16:21:24;17.23;;;4.90;;
65684;SDS011;52405;50.844;-1.062;2022-10-31T16:23:56;18.13;;;3.75;;
65684;SDS011;52405;50.844;-1.062;2022-10-31T16:26:26;18.38;;;4.32;;
65684;SDS011;52405;50.844;-1.062;2022-10-31T16:28:52;12.25;;;4.25;;
65684;SDS011;52405;50.844;-1.062;2022-10-31T16:31:27;21.83;;;4.82;;
65684;SDS011;52405;50.844;-1.062;2022-10-31T16:34:24;20.15;;;4.03;;
65684;SDS011;52405;50.844;-1.062;2022-10-31T16:36:49;21.58;;;4.32;;
65684;SDS011;52405;50.844;-1.062;2022-10-31T16:39:15;20.27;;;5.00;;
65684;SDS011;52405;50.844;-1.062;2022-10-31T16:41:42;14.23;;;4.05;;
65684;SDS011;52405;50.844;-1.062;2022-10-31T16:44:22;13.95;;;5.38;;
65684;SDS011;52405;50.844;-1.062;2022-10-31T16:47:23;17.15;;;5.00;;
65684;SDS011;52405;50.844;-1.062;2022-10-31T16:49:42;18.67;;;6.07;;
65684;SDS011;52405;50.844;-1.062;2022-10-31T16:52:11;16.27;;;5.97;;
65684;SDS011;52405;50.844;-1.062;2022-10-31T16:54:36;25.25;;;6.25;;
65684;SDS011;52405;50.844;-1.062;2022-10-31T16:57:02;20.58;;;6.57;;
65684;SDS011;52405;50.844;-1.062;2022-10-31T16:59:30;16.55;;;6.13;;
65684;SDS011;52405;50.844;-1.062;2022-10-31T17:01:58;13.13;;;5.75;;
65684;SDS011;52405;50.844;-1.062;2022-10-31T17:04:24;15.18;;;6.05;;
65684;SDS011;52405;50.844;-1.062;2022-10-31T17:06:50;23.85;;;7.90;;
65684;SDS011;52405;50.844;-1.062;2022-10-31T17:09:15;19.15;;;6.43;;
65684;SDS011;52405;50.844;-1.062;2022-10-31T17:11:44;24.73;;;5.82;;
65684;SDS011;52405;50.844;-1.062;2022-10-31T17:14:11;16.40;;;7.47;;
65684;SDS011;52405;50.844;-1.062;2022-10-31T17:16:37;24.20;;;8.35;;
65684;SDS011;52405;50.844;-1.062;2022-10-31T17:19:02;16.88;;;7.53;;
65684;SDS011;52405;50.844;-1.062;2022-10-31T17:21:28;16.63;;;7.32;;
65684;SDS011;52405;50.844;-1.062;2022-10-31T17:23:54;21.98;;;7.32;;
65684;SDS011;52405;50.844;-1.062;2022-10-31T17:26:20;35.85;;;8.82;;
65684;SDS011;52405;50.844;-1.062;2022-10-31T17:28:46;21.27;;;7.15;;
65684;SDS011;52405;50.844;-1.062;2022-10-31T17:31:21;20.45;;;8.35;;